M I D A S
Marine Information and Data Acquisition System
Tripno 675 of the Zeeleeuw from 2004-03-24 07:31:20 to 2004-03-24 15:50:46
Back to CruiseResearch ActivitiesStationsMapUnderway DataData graphs

EquipmentUnitsComments
TimeDGPSUTC
LatitudeDGPSDM.mWGS84
LongitudeDGPSDM.mWGS84
SpeedMeteo Stationm/sRelative wind speed
DirectionMeteo StationdegRelative wind direction
TemperatureMeteo Stationdeg CelciusAir temperature
PressureMeteo StationPaAtmospheric pressure
HumidityMeteo Station%Relative humidity
Missing or incorrect values are displayed as -999
Metereological data collected by the RV Zeeleeuw from 2004-03-24 07:31:20 to 2004-03-24 15:50:46
                                                                                    Next 1000 lines
Time Latitude Longitude Speed Direction Temperature Pressure Humidity
2004-03-24 07:31:28 51°13.595 2°56.098 2 277 6.5 101920 75
2004-03-24 07:31:34 51°13.595 2°56.097 2.3 214 6.5 101920 75
2004-03-24 07:31:39 51°13.595 2°56.097 2.7 222 6.5 101920 75
2004-03-24 07:31:44 51°13.595 2°56.097 3.1 237 6.5 101920 75
2004-03-24 07:31:49 51°13.595 2°56.097 2.4 244 6.5 101920 75
2004-03-24 07:31:54 51°13.595 2°56.096 2.4 261 6.5 101920 75
2004-03-24 07:31:58 51°13.595 2°56.096 4 234 6.5 101920 75
2004-03-24 07:32:04 51°13.595 2°56.096 2.9 253 6.5 101920 75
2004-03-24 07:32:09 51°13.595 2°56.096 3.1 258 6.5 101920 75
2004-03-24 07:32:14 51°13.594 2°56.096 3 278 6.5 101920 75
2004-03-24 07:32:18 51°13.594 2°56.096 3.4 256 6.5 101920 75
2004-03-24 07:32:24 51°13.594 2°56.096 2.3 253 6.5 101920 75
2004-03-24 07:32:29 51°13.594 2°56.096 2.3 251 6.5 101920 74
2004-03-24 07:32:34 51°13.594 2°56.097 3.4 252 6.5 101920 74
2004-03-24 07:32:39 51°13.593 2°56.098 2.3 255 6.5 101920 74
2004-03-24 07:32:44 51°13.592 2°56.1 2.3 262 6.5 101920 74
2004-03-24 07:32:48 51°13.591 2°56.101 1.9 255 6.5 101930 74
2004-03-24 07:32:54 51°13.59 2°56.103 1.7 252 6.5 101930 74
2004-03-24 07:32:58 51°13.589 2°56.106 3.8 240 6.5 101920 74
2004-03-24 07:33:04 51°13.587 2°56.109 2.3 255 6.5 101920 74
2004-03-24 07:33:09 51°13.586 2°56.113 3.4 275 6.6 101920 74
2004-03-24 07:33:14 51°13.584 2°56.117 3.4 292 6.6 101920 74
2004-03-24 07:33:18 51°13.583 2°56.12 4.1 289 6.6 101920 75
2004-03-24 07:33:24 51°13.581 2°56.126 4.2 290 6.6 101920 75
2004-03-24 07:33:29 51°13.579 2°56.13 4.7 291 6.6 101930 74
2004-03-24 07:33:34 51°13.577 2°56.136 5.2 288 6.6 101930 74
2004-03-24 07:33:38 51°13.576 2°56.141 5 305 6.6 101930 75
2004-03-24 07:33:44 51°13.573 2°56.148 5.1 316 6.6 101930 75
2004-03-24 07:33:49 51°13.572 2°56.154 3.6 302 6.6 101930 74
2004-03-24 07:33:54 51°13.57 2°56.161 5.9 292 6.6 101930 74
2004-03-24 07:33:58 51°13.568 2°56.166 5.3 291 6.6 101920 74
2004-03-24 07:34:04 51°13.566 2°56.174 5 291 6.6 101920 74
2004-03-24 07:34:08 51°13.564 2°56.179 4.3 287 6.6 101920 74
2004-03-24 07:34:14 51°13.562 2°56.187 3.5 283 6.6 101920 74
2004-03-24 07:34:18 51°13.56 2°56.192 4.2 273 6.6 101920 74
2004-03-24 07:34:24 51°13.558 2°56.199 2.4 289 6.6 101920 74
2004-03-24 07:34:29 51°13.555 2°56.206 3 240 6.6 101930 74
2004-03-24 07:34:34 51°13.552 2°56.212 2.3 256 6.6 101930 74
2004-03-24 07:34:39 51°13.549 2°56.217 2.2 250 6.6 101930 74
2004-03-24 07:34:44 51°13.545 2°56.223 2.3 294 6.6 101930 74
2004-03-24 07:34:49 51°13.541 2°56.227 1.8 279 6.6 101930 74
2004-03-24 07:34:54 51°13.536 2°56.231 2.2 276 6.6 101930 74
2004-03-24 07:34:58 51°13.533 2°56.234 2.4 256 6.6 101930 74
2004-03-24 07:35:04 51°13.527 2°56.237 3.2 227 6.6 101930 74
2004-03-24 07:35:09 51°13.523 2°56.239 3.4 231 6.6 101930 74
2004-03-24 07:35:14 51°13.519 2°56.24 4.4 188 6.6 101930 74
2004-03-24 07:35:18 51°13.517 2°56.241 3.4 198 6.6 101930 74
2004-03-24 07:35:24 51°13.514 2°56.241 2.1 183 6.6 101930 74
2004-03-24 07:35:28 51°13.514 2°56.241 3.4 206 6.6 101930 74
2004-03-24 07:35:34 51°13.513 2°56.241 2.2 161 6.6 101930 74
2004-03-24 07:35:38 51°13.514 2°56.241 1.9 225 6.6 101930 74
2004-03-24 07:35:44 51°13.516 2°56.242 3.3 173 6.6 101930 74
2004-03-24 07:35:49 51°13.518 2°56.242 3.1 166 6.6 101930 74
2004-03-24 07:35:54 51°13.52 2°56.243 4.9 167 6.6 101930 74
2004-03-24 07:35:58 51°13.522 2°56.244 5 166 6.6 101930 74
2004-03-24 07:36:04 51°13.525 2°56.246 4.5 180 6.6 101930 74
2004-03-24 07:36:10 51°13.528 2°56.247 4.9 169 6.6 101930 74
2004-03-24 07:36:14 51°13.53 2°56.248 2.7 178 6.6 101930 74
2004-03-24 07:36:20 51°13.531 2°56.248 3.2 169 6.6 101930 74
2004-03-24 07:36:24 51°13.532 2°56.249 1.3 207 6.6 101930 74
2004-03-24 07:36:30 51°13.533 2°56.248 1.7 175 6.6 101930 74
2004-03-24 07:36:34 51°13.533 2°56.248 2 153 6.6 101930 74
2004-03-24 07:36:40 51°13.533 2°56.247 2.1 153 6.6 101930 73
2004-03-24 07:36:45 51°13.533 2°56.245 1.8 153 6.6 101930 73
2004-03-24 07:36:50 51°13.532 2°56.244 1.4 125 6.6 101930 73
2004-03-24 07:36:54 51°13.531 2°56.242 1.5 132 6.6 101930 73
2004-03-24 07:37:00 51°13.53 2°56.24 1.9 135 6.6 101930 73
2004-03-24 07:37:05 51°13.53 2°56.237 1.7 127 6.6 101930 73
2004-03-24 07:37:09 51°13.529 2°56.236 1.6 118 6.7 101930 74
2004-03-24 07:37:14 51°13.529 2°56.236 1.9 138 6.7 101930 74
2004-03-24 07:37:20 51°13.529 2°56.237 1.9 225 6.7 101930 74
2004-03-24 07:37:24 51°13.53 2°56.238 4.3 152 6.7 101930 74
2004-03-24 07:37:30 51°13.53 2°56.241 4.6 154 6.7 101930 74
2004-03-24 07:37:34 51°13.531 2°56.243 4.4 154 6.7 101930 74
2004-03-24 07:37:38 51°13.532 2°56.244 4.1 138 6.7 101930 74
2004-03-24 07:37:45 51°13.532 2°56.244 3.5 125 6.7 101930 74
2004-03-24 07:37:50 51°13.532 2°56.242 3 103 6.7 101930 73
2004-03-24 07:37:54 51°13.532 2°56.239 3 76 6.7 101930 73
2004-03-24 07:38:00 51°13.532 2°56.233 3.3 66 6.7 101930 73
2004-03-24 07:38:04 51°13.532 2°56.228 2.9 37 6.7 101930 73
2004-03-24 07:38:10 51°13.533 2°56.221 2.7 56 6.7 101930 73
2004-03-24 07:38:15 51°13.534 2°56.214 2.2 73 6.7 101930 73
2004-03-24 07:38:18 51°13.535 2°56.21 3.4 43 6.7 101930 73
2004-03-24 07:38:24 51°13.537 2°56.2 3.8 40 6.7 101930 73
2004-03-24 07:38:29 51°13.539 2°56.191 3.8 25 6.7 101930 73
2004-03-24 07:38:34 51°13.542 2°56.182 5.2 41 6.7 101930 73
2004-03-24 07:38:39 51°13.546 2°56.172 5.8 54 6.7 101930 73
2004-03-24 07:38:44 51°13.55 2°56.161 5.4 47 6.7 101930 73
2004-03-24 07:38:49 51°13.554 2°56.15 5.1 52 6.7 101940 73
2004-03-24 07:38:54 51°13.558 2°56.139 4.7 55 6.7 101940 73
2004-03-24 07:38:59 51°13.563 2°56.126 4.9 45 6.7 101940 73
2004-03-24 07:39:04 51°13.568 2°56.114 4.4 39 6.7 101940 73
2004-03-24 07:39:09 51°13.572 2°56.1 4.1 27 6.7 101940 73
2004-03-24 07:39:14 51°13.576 2°56.087 3.6 34 6.7 101940 73
2004-03-24 07:39:20 51°13.582 2°56.071 5.5 12 6.7 101940 73
2004-03-24 07:39:24 51°13.586 2°56.06 5.2 40 6.7 101940 73
2004-03-24 07:39:29 51°13.592 2°56.047 6.3 20 6.7 101940 73
2004-03-24 07:39:34 51°13.597 2°56.034 5 41 6.7 101940 73
2004-03-24 07:39:38 51°13.602 2°56.024 5.2 37 6.7 101940 73
2004-03-24 07:39:44 51°13.608 2°56.009 5.3 42 6.7 101940 73
2004-03-24 07:39:49 51°13.614 2°55.996 6 30 6.7 101930 73
2004-03-24 07:39:54 51°13.619 2°55.983 5.7 44 6.7 101930 73
2004-03-24 07:39:59 51°13.624 2°55.971 5.3 35 6.7 101930 73
2004-03-24 07:40:04 51°13.629 2°55.959 5.2 17 6.7 101930 73
2004-03-24 07:40:09 51°13.634 2°55.946 7 45 6.7 101920 73
2004-03-24 07:40:14 51°13.639 2°55.934 7 41 6.7 101920 73
2004-03-24 07:40:18 51°13.643 2°55.924 6.5 35 6.7 101930 73
2004-03-24 07:40:24 51°13.649 2°55.91 5.4 34 6.7 101930 73
2004-03-24 07:40:29 51°13.653 2°55.898 4.6 49 6.7 101930 73
2004-03-24 07:40:34 51°13.658 2°55.886 5.5 24 6.7 101930 73
2004-03-24 07:40:38 51°13.662 2°55.876 4.9 24 6.7 101930 73
2004-03-24 07:40:44 51°13.668 2°55.862 4.9 45 6.7 101930 73
2004-03-24 07:40:49 51°13.673 2°55.85 5.8 35 6.7 101930 73
2004-03-24 07:40:54 51°13.678 2°55.838 6.3 42 6.7 101930 73
2004-03-24 07:41:00 51°13.685 2°55.824 6.3 36 6.7 101930 73
2004-03-24 07:41:04 51°13.689 2°55.815 5.4 27 6.7 101930 73
2004-03-24 07:41:08 51°13.694 2°55.805 5.7 29 6.7 101930 74
2004-03-24 07:41:14 51°13.701 2°55.79 5.4 29 6.7 101930 74
2004-03-24 07:41:19 51°13.707 2°55.778 7.5 35 6.7 101930 74
2004-03-24 07:41:24 51°13.714 2°55.766 5.9 27 6.7 101930 74
2004-03-24 07:41:29 51°13.721 2°55.754 6.5 16 6.7 101930 74
2004-03-24 07:41:34 51°13.728 2°55.742 6.2 31 6.7 101930 74
2004-03-24 07:41:38 51°13.733 2°55.733 6.8 30 6.7 101920 73
2004-03-24 07:41:44 51°13.742 2°55.72 6.5 20 6.7 101920 73
2004-03-24 07:41:48 51°13.748 2°55.712 6.6 26 6.7 101920 73
2004-03-24 07:41:54 51°13.758 2°55.7 8.2 10 6.7 101920 73
2004-03-24 07:41:59 51°13.766 2°55.69 6.4 26 6.7 101920 73
2004-03-24 07:42:04 51°13.774 2°55.681 5.3 24 6.7 101920 73
2004-03-24 07:42:09 51°13.783 2°55.671 7.4 28 6.7 101920 73
2004-03-24 07:42:14 51°13.791 2°55.662 7.5 24 6.7 101920 73
2004-03-24 07:42:18 51°13.798 2°55.655 8.1 26 6.7 101920 73
2004-03-24 07:42:24 51°13.809 2°55.644 8.9 22 6.7 101920 73
2004-03-24 07:42:29 51°13.818 2°55.636 8.8 23 6.6 101930 73
2004-03-24 07:42:34 51°13.827 2°55.628 8.4 29 6.6 101930 73
2004-03-24 07:42:39 51°13.837 2°55.621 7.6 20 6.6 101930 73
2004-03-24 07:42:44 51°13.846 2°55.614 7.9 20 6.6 101930 73
2004-03-24 07:42:48 51°13.854 2°55.608 7.9 22 6.6 101920 73
2004-03-24 07:42:54 51°13.866 2°55.601 7.5 28 6.6 101920 73
2004-03-24 07:42:58 51°13.873 2°55.595 7.4 17 6.6 101920 73
2004-03-24 07:43:04 51°13.885 2°55.587 8.6 20 6.6 101920 73
2004-03-24 07:43:09 51°13.895 2°55.58 9.1 25 6.7 101920 74
2004-03-24 07:43:14 51°13.905 2°55.573 10.2 23 6.7 101920 74
2004-03-24 07:43:18 51°13.913 2°55.567 9.2 26 6.7 101920 74
2004-03-24 07:43:24 51°13.925 2°55.559 9.4 30 6.7 101920 74
2004-03-24 07:43:29 51°13.935 2°55.551 9.2 23 6.7 101920 74
2004-03-24 07:43:34 51°13.946 2°55.544 11 22 6.7 101920 74
2004-03-24 07:43:38 51°13.954 2°55.538 10 27 6.7 101910 74
2004-03-24 07:43:44 51°13.967 2°55.528 10.2 25 6.7 101910 74
2004-03-24 07:43:49 51°13.978 2°55.52 10.6 27 6.6 101910 73
2004-03-24 07:43:54 51°13.988 2°55.512 10 22 6.6 101910 73
2004-03-24 07:44:00 51°14.001 2°55.503 9.9 25 6.6 101910 73
2004-03-24 07:44:04 51°14.01 2°55.497 9 23 6.6 101910 73
2004-03-24 07:44:08 51°14.019 2°55.491 9 22 6.6 101910 72
2004-03-24 07:44:14 51°14.032 2°55.481 9.6 27 6.6 101910 72
2004-03-24 07:44:19 51°14.043 2°55.473 10 28 6.6 101910 72
2004-03-24 07:44:24 51°14.054 2°55.465 9.4 22 6.6 101910 72
2004-03-24 07:44:29 51°14.066 2°55.457 10 21 6.6 101920 72
2004-03-24 07:44:34 51°14.077 2°55.449 10.7 29 6.6 101920 72
2004-03-24 07:44:38 51°14.086 2°55.442 10.2 26 6.6 101910 72
2004-03-24 07:44:44 51°14.1 2°55.431 9.7 24 6.6 101910 72
2004-03-24 07:44:48 51°14.11 2°55.424 10.3 29 6.6 101910 73
2004-03-24 07:44:54 51°14.124 2°55.414 8.3 25 6.6 101910 73
2004-03-24 07:44:59 51°14.136 2°55.405 8.1 29 6.6 101920 73
2004-03-24 07:45:04 51°14.148 2°55.395 8.1 25 6.6 101920 73
2004-03-24 07:45:09 51°14.16 2°55.385 7.8 20 6.6 101910 73
2004-03-24 07:45:14 51°14.172 2°55.374 9.2 25 6.6 101910 73
2004-03-24 07:45:18 51°14.181 2°55.366 8.4 35 6.6 101920 73
2004-03-24 07:45:24 51°14.194 2°55.352 8.6 30 6.6 101920 73
2004-03-24 07:45:29 51°14.205 2°55.34 8 28 6.6 101920 74
2004-03-24 07:45:34 51°14.216 2°55.328 8.8 37 6.6 101920 74
2004-03-24 07:45:39 51°14.227 2°55.314 8.1 31 6.6 101920 74
2004-03-24 07:45:44 51°14.238 2°55.299 8.6 45 6.6 101920 74
2004-03-24 07:45:48 51°14.247 2°55.286 10 29 6.6 101920 74
2004-03-24 07:45:54 51°14.259 2°55.267 9.5 38 6.6 101920 74
2004-03-24 07:45:58 51°14.267 2°55.253 9 40 6.6 101920 74
2004-03-24 07:46:04 51°14.279 2°55.232 8.3 30 6.6 101920 74
2004-03-24 07:46:09 51°14.289 2°55.213 8.2 33 6.6 101920 74
2004-03-24 07:46:14 51°14.299 2°55.195 8.1 38 6.6 101920 74
2004-03-24 07:46:20 51°14.311 2°55.171 7.7 28 6.6 101920 74
2004-03-24 07:46:24 51°14.319 2°55.155 9.4 32 6.6 101920 74
2004-03-24 07:46:29 51°14.329 2°55.136 7 16 6.6 101920 75
2004-03-24 07:46:34 51°14.34 2°55.116 10.3 34 6.6 101920 75
2004-03-24 07:46:38 51°14.348 2°55.099 11.4 42 6.6 101920 75
2004-03-24 07:46:44 51°14.36 2°55.074 10.3 40 6.6 101920 75
2004-03-24 07:46:49 51°14.371 2°55.054 11 41 6.6 101920 75
2004-03-24 07:46:54 51°14.382 2°55.033 12.2 32 6.6 101920 75
2004-03-24 07:46:59 51°14.394 2°55.013 12 35 6.6 101930 75
2004-03-24 07:47:04 51°14.408 2°54.994 11.9 31 6.6 101930 75
2004-03-24 07:47:09 51°14.422 2°54.976 14.5 32 6.6 101910 75
2004-03-24 07:47:14 51°14.437 2°54.96 12.8 32 6.6 101910 75
2004-03-24 07:47:18 51°14.449 2°54.947 13 29 6.5 101900 74
2004-03-24 07:47:24 51°14.467 2°54.927 13.1 25 6.5 101900 74
2004-03-24 07:47:29 51°14.482 2°54.911 12.8 25 6.5 101930 74
2004-03-24 07:47:34 51°14.498 2°54.896 12.8 27 6.5 101930 74
2004-03-24 07:47:38 51°14.511 2°54.884 12.9 26 6.5 101930 74
2004-03-24 07:47:44 51°14.529 2°54.867 12.5 29 6.5 101930 74
2004-03-24 07:47:49 51°14.545 2°54.851 13.1 28 6.5 101930 74
2004-03-24 07:47:54 51°14.56 2°54.835 12.8 28 6.5 101930 74
2004-03-24 07:47:59 51°14.576 2°54.82 12.1 29 6.5 101930 74
2004-03-24 07:48:04 51°14.592 2°54.806 12.6 23 6.5 101930 74
2004-03-24 07:48:09 51°14.608 2°54.793 12.5 21 6.5 101930 73
2004-03-24 07:48:14 51°14.625 2°54.782 12.3 21 6.5 101930 73
2004-03-24 07:48:18 51°14.639 2°54.774 12.7 22 6.4 101940 73
2004-03-24 07:48:24 51°14.659 2°54.762 11.4 19 6.4 101940 73
2004-03-24 07:48:29 51°14.676 2°54.753 13.2 16 6.5 101940 74
2004-03-24 07:48:34 51°14.693 2°54.744 12.8 19 6.5 101940 74
2004-03-24 07:48:38 51°14.707 2°54.736 12.5 14 6.5 101940 74
2004-03-24 07:48:44 51°14.727 2°54.724 12.8 23 6.5 101940 74
2004-03-24 07:48:48 51°14.741 2°54.716 12.4 21 6.5 101940 74
2004-03-24 07:48:54 51°14.761 2°54.703 13.2 18 6.5 101940 74
2004-03-24 07:48:58 51°14.774 2°54.695 12.8 22 6.5 101940 74
2004-03-24 07:49:04 51°14.794 2°54.683 12.7 22 6.5 101940 74
2004-03-24 07:49:09 51°14.811 2°54.674 12.7 19 6.5 101930 74
2004-03-24 07:49:14 51°14.828 2°54.666 12.8 18 6.5 101930 74
2004-03-24 07:49:18 51°14.842 2°54.66 12.1 18 6.5 101940 74
2004-03-24 07:49:24 51°14.862 2°54.65 12 25 6.5 101940 74
2004-03-24 07:49:29 51°14.879 2°54.642 11.6 23 6.5 101940 74
2004-03-24 07:49:34 51°14.896 2°54.633 12.4 21 6.5 101940 74
2004-03-24 07:49:39 51°14.913 2°54.623 11.6 20 6.5 101940 73
2004-03-24 07:49:44 51°14.93 2°54.614 12.1 17 6.5 101940 73
2004-03-24 07:49:49 51°14.947 2°54.605 12.5 16 6.5 101940 73
2004-03-24 07:49:54 51°14.964 2°54.597 12.1 14 6.5 101940 73
2004-03-24 07:49:58 51°14.977 2°54.591 12.6 18 6.5 101940 73
2004-03-24 07:50:04 51°14.997 2°54.583 12.7 16 6.5 101940 73
2004-03-24 07:50:09 51°15.014 2°54.576 12.7 16 6.5 101940 73
2004-03-24 07:50:14 51°15.03 2°54.567 13.1 19 6.5 101940 73
2004-03-24 07:50:18 51°15.043 2°54.559 11.7 19 6.5 101940 74
2004-03-24 07:50:24 51°15.062 2°54.546 11.5 18 6.5 101940 74
2004-03-24 07:50:28 51°15.075 2°54.538 11.7 20 6.5 101940 73
2004-03-24 07:50:34 51°15.093 2°54.527 12.2 18 6.5 101940 73
2004-03-24 07:50:38 51°15.106 2°54.519 12 21 6.6 101940 73
2004-03-24 07:50:44 51°15.125 2°54.509 11.4 15 6.6 101940 73
2004-03-24 07:50:49 51°15.141 2°54.501 12.7 17 6.5 101950 73
2004-03-24 07:50:54 51°15.157 2°54.494 12.6 14 6.5 101950 73
2004-03-24 07:50:58 51°15.171 2°54.489 11.8 17 6.5 101940 73
2004-03-24 07:51:04 51°15.19 2°54.48 12.4 17 6.5 101940 73
2004-03-24 07:51:09 51°15.207 2°54.473 13.3 19 6.6 101890 73
2004-03-24 07:51:14 51°15.223 2°54.465 13.3 22 6.6 101890 73
2004-03-24 07:51:19 51°15.24 2°54.456 12.6 22 6.6 101890 73
2004-03-24 07:51:24 51°15.256 2°54.447 12.5 21 6.6 101890 73
2004-03-24 07:51:29 51°15.273 2°54.439 12.6 22 6.6 101890 73
2004-03-24 07:51:34 51°15.289 2°54.43 13 21 6.6 101890 73
2004-03-24 07:51:38 51°15.303 2°54.423 13.1 21 6.6 101880 74
2004-03-24 07:51:44 51°15.323 2°54.414 12.4 18 6.6 101880 74
2004-03-24 07:51:48 51°15.336 2°54.407 12.8 17 6.6 101890 74
2004-03-24 07:51:54 51°15.357 2°54.399 13.4 15 6.6 101890 74
2004-03-24 07:51:58 51°15.371 2°54.395 13.2 13 6.6 101890 74
2004-03-24 07:52:04 51°15.392 2°54.39 12.8 12 6.6 101890 74
2004-03-24 07:52:08 51°15.405 2°54.388 12.8 12 6.6 101890 74
2004-03-24 07:52:14 51°15.426 2°54.387 12.6 3 6.6 101890 74
2004-03-24 07:52:20 51°15.447 2°54.386 13.8 5 6.6 101890 74
2004-03-24 07:52:24 51°15.461 2°54.385 14.5 11 6.6 101890 74
2004-03-24 07:52:29 51°15.479 2°54.384 13.8 12 6.6 101890 74
2004-03-24 07:52:34 51°15.496 2°54.382 13.1 12 6.6 101890 74
2004-03-24 07:52:38 51°15.51 2°54.379 12.9 9 6.6 101900 74
2004-03-24 07:52:44 51°15.532 2°54.375 13 17 6.6 101900 74
2004-03-24 07:52:49 51°15.549 2°54.371 13.8 18 6.6 101900 74
2004-03-24 07:52:54 51°15.567 2°54.365 13.7 19 6.6 101900 74
2004-03-24 07:52:58 51°15.581 2°54.36 14.1 19 6.6 101900 74
2004-03-24 07:53:04 51°15.602 2°54.352 13.9 18 6.6 101900 74
2004-03-24 07:53:09 51°15.619 2°54.346 12.9 13 6.6 101900 74
2004-03-24 07:53:14 51°15.637 2°54.34 14.6 11 6.6 101900 74
2004-03-24 07:53:18 51°15.651 2°54.336 14.6 12 6.6 101900 74
2004-03-24 07:53:24 51°15.672 2°54.333 14.8 7 6.6 101900 74
2004-03-24 07:53:28 51°15.687 2°54.332 13.7 6 6.6 101900 73
2004-03-24 07:53:34 51°15.708 2°54.331 14.4 7 6.6 101900 73
2004-03-24 07:53:39 51°15.726 2°54.333 14.8 5 6.6 101900 74
2004-03-24 07:53:44 51°15.744 2°54.335 14.3 6 6.6 101900 74
2004-03-24 07:53:48 51°15.758 2°54.338 13.2 5 6.6 101900 73
2004-03-24 07:53:54 51°15.779 2°54.34 14.4 10 6.6 101900 73
2004-03-24 07:53:58 51°15.793 2°54.342 13.9 9 6.6 101910 73
2004-03-24 07:54:04 51°15.815 2°54.343 14.2 2 6.6 101910 73
2004-03-24 07:54:09 51°15.833 2°54.344 13.7 8 6.6 101900 73
2004-03-24 07:54:14 51°15.851 2°54.345 14.7 8 6.6 101900 73
2004-03-24 07:54:18 51°15.866 2°54.345 14.3 8 6.6 101910 74
2004-03-24 07:54:24 51°15.887 2°54.346 14.8 9 6.6 101910 74
2004-03-24 07:54:29 51°15.905 2°54.346 14.7 8 6.6 101910 74
2004-03-24 07:54:34 51°15.923 2°54.346 14.6 9 6.6 101910 74
2004-03-24 07:54:38 51°15.938 2°54.345 14.7 9 6.6 101900 74
2004-03-24 07:54:44 51°15.959 2°54.34 12.9 19 6.6 101900 74
2004-03-24 07:54:48 51°15.972 2°54.335 13.4 18 6.6 101910 73
2004-03-24 07:54:54 51°15.992 2°54.324 13.4 22 6.6 101910 73
2004-03-24 07:55:00 51°16.012 2°54.312 13.9 21 6.6 101910 73
2004-03-24 07:55:04 51°16.024 2°54.304 13.4 18 6.6 101910 73
2004-03-24 07:55:09 51°16.039 2°54.294 14.1 18 6.6 101910 73
2004-03-24 07:55:14 51°16.054 2°54.285 12.1 17 6.6 101910 73
2004-03-24 07:55:18 51°16.067 2°54.278 13.1 18 6.6 101910 73
2004-03-24 07:55:24 51°16.084 2°54.268 13.1 18 6.6 101910 73
2004-03-24 07:55:28 51°16.096 2°54.263 12.9 17 6.6 101910 74
2004-03-24 07:55:34 51°16.114 2°54.254 11.6 11 6.6 101910 74
2004-03-24 07:55:38 51°16.125 2°54.25 12.1 13 6.6 101920 74
2004-03-24 07:55:44 51°16.142 2°54.244 10.8 8 6.6 101920 74
2004-03-24 07:55:49 51°16.155 2°54.24 11.3 11 6.6 101920 74
2004-03-24 07:55:54 51°16.167 2°54.238 10.6 2 6.6 101920 74
2004-03-24 07:55:58 51°16.176 2°54.237 11.4 359 6.6 101920 74
2004-03-24 07:56:04 51°16.188 2°54.24 10.5 347 6.6 101920 74
2004-03-24 07:56:09 51°16.197 2°54.243 9.4 349 6.6 101950 74
2004-03-24 07:56:14 51°16.204 2°54.247 9.7 343 6.6 101950 74
2004-03-24 07:56:18 51°16.21 2°54.25 9 348 6.6 101940 74
2004-03-24 07:56:24 51°16.218 2°54.255 8.9 342 6.6 101940 74
2004-03-24 07:56:28 51°16.223 2°54.259 8.8 342 6.6 101940 75
2004-03-24 07:56:34 51°16.23 2°54.264 8.3 337 6.6 101940 75
2004-03-24 07:56:38 51°16.233 2°54.268 8.5 334 6.6 101940 75
2004-03-24 07:56:44 51°16.239 2°54.274 8.4 336 6.6 101940 75
2004-03-24 07:56:49 51°16.243 2°54.279 9.1 334 6.6 101940 75
2004-03-24 07:56:54 51°16.246 2°54.284 9.4 334 6.6 101940 75
2004-03-24 07:56:59 51°16.249 2°54.289 9.4 336 6.7 101940 75
2004-03-24 07:57:04 51°16.251 2°54.292 8.4 327 6.7 101940 75
2004-03-24 07:57:09 51°16.253 2°54.296 7.7 329 6.7 101940 75
2004-03-24 07:57:14 51°16.254 2°54.298 7.3 322 6.7 101940 75
2004-03-24 07:57:19 51°16.255 2°54.3 7.8 318 6.7 101940 75
2004-03-24 07:57:24 51°16.255 2°54.301 7.6 312 6.7 101940 75
2004-03-24 07:57:29 51°16.254 2°54.301 7.8 309 6.6 101930 74
2004-03-24 07:57:34 51°16.253 2°54.299 6.9 300 6.6 101930 74
2004-03-24 07:57:38 51°16.252 2°54.297 7.6 302 6.6 101940 74
2004-03-24 07:57:44 51°16.251 2°54.294 7.2 299 6.6 101940 74
2004-03-24 07:57:49 51°16.249 2°54.291 6.6 296 6.6 101940 73
2004-03-24 07:57:54 51°16.248 2°54.288 6.9 287 6.6 101940 73
2004-03-24 07:57:59 51°16.247 2°54.286 7.2 291 6.6 101930 73
2004-03-24 07:58:04 51°16.245 2°54.283 6.5 281 6.6 101930 73
2004-03-24 07:58:09 51°16.244 2°54.281 6.9 286 6.5 101940 73
2004-03-24 07:58:14 51°16.243 2°54.278 7.1 282 6.5 101940 73
2004-03-24 07:58:20 51°16.241 2°54.275 6.3 282 6.5 101940 73
2004-03-24 07:58:25 51°16.24 2°54.272 6 284 6.5 101940 73
2004-03-24 07:58:30 51°16.239 2°54.27 6.1 277 6.5 101940 73
2004-03-24 07:58:34 51°16.238 2°54.268 6.3 281 6.5 101940 73
2004-03-24 07:58:40 51°16.236 2°54.266 5.8 284 6.5 101940 73
2004-03-24 07:58:44 51°16.235 2°54.264 5.4 279 6.5 101940 73
2004-03-24 07:58:49 51°16.234 2°54.263 5.8 281 6.6 101940 73
2004-03-24 07:58:54 51°16.232 2°54.261 6.3 287 6.6 101940 73
2004-03-24 07:58:58 51°16.232 2°54.26 6.5 294 6.6 101950 74
2004-03-24 07:59:04 51°16.23 2°54.259 6.4 286 6.6 101950 74
2004-03-24 07:59:09 51°16.228 2°54.258 6.3 288 6.6 101950 74
2004-03-24 07:59:14 51°16.227 2°54.257 7.1 282 6.6 101950 74
2004-03-24 07:59:18 51°16.226 2°54.256 7.1 282 6.7 101950 75
2004-03-24 07:59:24 51°16.224 2°54.255 5.7 284 6.7 101950 75
2004-03-24 07:59:29 51°16.223 2°54.255 7.3 280 6.7 101950 75
2004-03-24 07:59:34 51°16.221 2°54.255 6.6 279 6.7 101950 75
2004-03-24 07:59:40 51°16.22 2°54.254 6.4 282 6.7 101950 75
2004-03-24 07:59:44 51°16.219 2°54.254 6.7 283 6.7 101950 75
2004-03-24 07:59:49 51°16.217 2°54.254 6.5 284 6.7 101950 75
2004-03-24 07:59:54 51°16.216 2°54.253 6.3 286 6.7 101950 75
2004-03-24 07:59:59 51°16.215 2°54.253 7.2 278 6.7 101940 74
2004-03-24 08:00:04 51°16.213 2°54.253 7.5 283 6.7 101940 74
2004-03-24 08:00:09 51°16.212 2°54.253 8.2 282 6.6 101950 74
2004-03-24 08:00:14 51°16.211 2°54.253 7.6 294 6.6 101950 74
2004-03-24 08:00:19 51°16.21 2°54.252 7.1 299 6.6 101950 74
2004-03-24 08:00:24 51°16.208 2°54.252 6.7 295 6.6 101950 74
2004-03-24 08:00:29 51°16.208 2°54.252 7.4 295 6.6 101950 73
2004-03-24 08:00:34 51°16.206 2°54.252 7.5 294 6.6 101950 73
2004-03-24 08:00:38 51°16.205 2°54.252 7.5 298 6.6 101940 74
2004-03-24 08:00:44 51°16.204 2°54.252 7.1 300 6.6 101940 74
2004-03-24 08:00:49 51°16.203 2°54.252 7 301 6.6 101950 74
2004-03-24 08:00:54 51°16.202 2°54.252 7.7 302 6.6 101950 74
2004-03-24 08:00:58 51°16.201 2°54.252 7 303 6.6 101940 74
2004-03-24 08:01:04 51°16.2 2°54.253 6.9 305 6.6 101940 74
2004-03-24 08:01:08 51°16.199 2°54.253 7.3 307 6.6 101950 73
2004-03-24 08:01:14 51°16.198 2°54.253 7.6 304 6.6 101950 73
2004-03-24 08:01:18 51°16.197 2°54.254 7.2 309 6.6 101950 73
2004-03-24 08:01:24 51°16.197 2°54.254 7.3 303 6.6 101950 73
2004-03-24 08:01:28 51°16.196 2°54.254 7.2 302 6.6 101940 73
2004-03-24 08:01:34 51°16.195 2°54.254 6.4 302 6.6 101940 73
2004-03-24 08:01:38 51°16.194 2°54.255 6.3 312 6.6 101940 73
2004-03-24 08:01:44 51°16.194 2°54.255 6.8 314 6.6 101940 73
2004-03-24 08:01:49 51°16.193 2°54.255 8 227 6.6 101950 73
2004-03-24 08:01:54 51°16.192 2°54.255 7 319 6.6 101950 73
2004-03-24 08:01:58 51°16.192 2°54.256 7.5 318 6.6 101940 73
2004-03-24 08:02:04 51°16.192 2°54.256 7.2 321 6.6 101940 73
2004-03-24 08:02:09 51°16.191 2°54.256 8.1 315 6.7 101950 73
2004-03-24 08:02:14 51°16.191 2°54.256 7.2 42 6.7 101950 73
2004-03-24 08:02:18 51°16.19 2°54.257 7.5 324 6.6 101950 73
2004-03-24 08:02:24 51°16.19 2°54.257 7.1 328 6.6 101950 73
2004-03-24 08:02:29 51°16.19 2°54.257 7 332 6.7 101950 73
2004-03-24 08:02:34 51°16.19 2°54.257 7 329 6.7 101950 73
2004-03-24 08:02:38 51°16.189 2°54.258 6.7 326 6.7 101950 73
2004-03-24 08:02:44 51°16.189 2°54.257 6.4 337 6.7 101950 73
2004-03-24 08:02:49 51°16.189 2°54.257 7.1 325 6.7 101950 73
2004-03-24 08:02:54 51°16.189 2°54.258 7.3 331 6.7 101950 73
2004-03-24 08:02:58 51°16.19 2°54.257 6.9 329 6.7 101950 73
2004-03-24 08:03:04 51°16.189 2°54.258 6.9 331 6.7 101950 73
2004-03-24 08:03:09 51°16.19 2°54.258 6.5 325 6.7 101950 73
2004-03-24 08:03:14 51°16.19 2°54.258 6.9 325 6.7 101950 73
2004-03-24 08:03:18 51°16.19 2°54.258 7 321 6.8 101940 73
2004-03-24 08:03:24 51°16.19 2°54.258 5.8 323 6.8 101940 73
2004-03-24 08:03:29 51°16.19 2°54.258 6 326 6.8 101940 73
2004-03-24 08:03:34 51°16.191 2°54.258 7 325 6.8 101940 73
2004-03-24 08:03:40 51°16.191 2°54.258 6.7 327 6.8 101940 73
2004-03-24 08:03:44 51°16.191 2°54.258 7.2 329 6.8 101940 73
2004-03-24 08:03:49 51°16.191 2°54.258 7.8 323 6.8 101940 74
2004-03-24 08:03:54 51°16.192 2°54.258 7.4 328 6.8 101940 74
2004-03-24 08:03:59 51°16.192 2°54.258 6.9 325 6.8 101950 74
2004-03-24 08:04:04 51°16.192 2°54.258 7.1 327 6.8 101950 74
2004-03-24 08:04:08 51°16.193 2°54.258 6.8 333 6.8 101950 74
2004-03-24 08:04:14 51°16.193 2°54.258 6.4 336 6.8 101950 74
2004-03-24 08:04:18 51°16.193 2°54.258 6.5 339 6.9 101940 74
2004-03-24 08:04:24 51°16.194 2°54.258 5.9 331 6.9 101940 74
2004-03-24 08:04:29 51°16.194 2°54.258 5.8 334 6.9 101950 74
2004-03-24 08:04:34 51°16.195 2°54.258 7.8 337 6.9 101950 74
2004-03-24 08:04:38 51°16.195 2°54.258 7.3 337 6.9 101950 74
2004-03-24 08:04:44 51°16.195 2°54.258 8.6 338 6.9 101950 74
2004-03-24 08:04:48 51°16.196 2°54.258 8.2 337 6.9 101950 74
2004-03-24 08:04:54 51°16.196 2°54.258 8 340 6.9 101950 74
2004-03-24 08:04:58 51°16.196 2°54.258 7.8 336 6.9 101950 74
2004-03-24 08:05:04 51°16.197 2°54.258 8.3 335 6.9 101950 74
2004-03-24 08:05:09 51°16.197 2°54.258 7.5 334 6.9 101940 74
2004-03-24 08:05:14 51°16.197 2°54.258 7.5 339 6.9 101940 74
2004-03-24 08:05:18 51°16.197 2°54.258 7.4 333 6.8 101940 74
2004-03-24 08:05:24 51°16.197 2°54.258 7.5 328 6.8 101940 74
2004-03-24 08:05:29 51°16.197 2°54.258 7.3 334 6.8 101940 73
2004-03-24 08:05:34 51°16.197 2°54.258 7.8 338 6.8 101940 73
2004-03-24 08:05:38 51°16.197 2°54.258 8 331 6.8 101940 73
2004-03-24 08:05:44 51°16.197 2°54.258 7.1 333 6.8 101940 73
2004-03-24 08:05:48 51°16.197 2°54.258 7.4 338 6.8 101950 73
2004-03-24 08:05:54 51°16.199 2°54.259 8.8 340 6.8 101950 73
2004-03-24 08:05:58 51°16.2 2°54.261 7.6 342 6.8 101940 73
2004-03-24 08:06:04 51°16.202 2°54.263 9.2 347 6.8 101940 73
2004-03-24 08:06:08 51°16.205 2°54.264 7.7 347 6.8 101940 73
2004-03-24 08:06:14 51°16.209 2°54.267 9 344 6.8 101940 73
2004-03-24 08:06:19 51°16.213 2°54.269 9.8 348 6.8 101940 73
2004-03-24 08:06:24 51°16.218 2°54.27 9.7 356 6.8 101940 73
2004-03-24 08:06:28 51°16.223 2°54.27 10 357 6.8 101940 73
2004-03-24 08:06:34 51°16.232 2°54.269 10.3 6 6.8 101940 73
2004-03-24 08:06:39 51°16.239 2°54.267 9 10 6.7 101930 73
2004-03-24 08:06:44 51°16.248 2°54.262 10.6 19 6.7 101930 73
2004-03-24 08:06:49 51°16.257 2°54.255 11 23 6.7 101930 74
2004-03-24 08:06:54 51°16.266 2°54.247 11.6 19 6.7 101930 74
2004-03-24 08:06:58 51°16.274 2°54.239 11.1 24 6.7 101930 74
2004-03-24 08:07:04 51°16.284 2°54.224 11.7 33 6.7 101930 74
2004-03-24 08:07:08 51°16.291 2°54.213 12.7 31 6.7 101930 74
2004-03-24 08:07:14 51°16.302 2°54.193 12.6 34 6.7 101930 74
2004-03-24 08:07:18 51°16.308 2°54.179 12.7 36 6.8 101920 74
2004-03-24 08:07:24 51°16.319 2°54.156 12.5 37 6.8 101920 74
2004-03-24 08:07:29 51°16.329 2°54.135 12.4 36 6.7 101920 74
2004-03-24 08:07:34 51°16.339 2°54.114 13.6 29 6.7 101920 74
2004-03-24 08:07:38 51°16.347 2°54.096 13 28 6.6 101900 73
2004-03-24 08:07:44 51°16.361 2°54.07 12.7 32 6.6 101900 73
2004-03-24 08:07:48 51°16.37 2°54.052 12.7 30 6.6 101890 71
2004-03-24 08:07:54 51°16.384 2°54.024 13.4 30 6.6 101890 71
2004-03-24 08:07:58 51°16.393 2°54.006 13.4 31 6.6 101890 72
2004-03-24 08:08:04 51°16.407 2°53.979 12.5 32 6.6 101890 72
2004-03-24 08:08:09 51°16.419 2°53.955 13 32 6.5 101890 72
2004-03-24 08:08:14 51°16.431 2°53.931 12.6 30 6.5 101890 72
2004-03-24 08:08:18 51°16.441 2°53.913 13.6 30 6.5 101890 72
2004-03-24 08:08:24 51°16.455 2°53.884 14.3 32 6.5 101890 72
2004-03-24 08:08:28 51°16.465 2°53.865 13.5 33 6.5 101890 71
2004-03-24 08:08:34 51°16.479 2°53.836 13.1 32 6.5 101890 71
2004-03-24 08:08:38 51°16.489 2°53.817 12.1 28 6.5 101890 72
2004-03-24 08:08:44 51°16.503 2°53.788 13.5 29 6.5 101890 72
2004-03-24 08:08:49 51°16.516 2°53.764 13.5 31 6.5 101890 72
2004-03-24 08:08:54 51°16.528 2°53.74 13.1 35 6.5 101890 72
2004-03-24 08:09:00 51°16.541 2°53.709 12.7 34 6.5 101890 72
2004-03-24 08:09:04 51°16.549 2°53.689 12.7 35 6.5 101890 72
2004-03-24 08:09:09 51°16.56 2°53.662 12.7 35 6.5 101900 73
2004-03-24 08:09:14 51°16.57 2°53.635 12.3 33 6.5 101900 73
2004-03-24 08:09:18 51°16.577 2°53.613 12.1 38 6.5 101890 73
2004-03-24 08:09:24 51°16.588 2°53.58 12 39 6.5 101890 73
2004-03-24 08:09:29 51°16.596 2°53.551 12.3 42 6.5 101890 72
2004-03-24 08:09:34 51°16.603 2°53.523 11.5 38 6.5 101890 72
2004-03-24 08:09:38 51°16.609 2°53.499 11.4 41 6.5 101900 73
2004-03-24 08:09:44 51°16.617 2°53.464 12.2 43 6.5 101900 73
2004-03-24 08:09:49 51°16.624 2°53.434 12.3 41 6.4 101890 73
2004-03-24 08:09:54 51°16.63 2°53.405 12.5 39 6.4 101890 73
2004-03-24 08:09:58 51°16.635 2°53.381 12.5 45 6.4 101890 73
2004-03-24 08:10:04 51°16.644 2°53.345 12.2 42 6.4 101890 73
2004-03-24 08:10:08 51°16.649 2°53.321 12.4 44 6.4 101890 73
2004-03-24 08:10:14 51°16.657 2°53.286 12 38 6.4 101890 73
2004-03-24 08:10:18 51°16.663 2°53.263 12.2 43 6.4 101890 73
2004-03-24 08:10:24 51°16.672 2°53.228 12.1 44 6.4 101890 73
2004-03-24 08:10:28 51°16.679 2°53.206 12.3 45 6.4 101890 74
2004-03-24 08:10:34 51°16.688 2°53.171 11.9 44 6.4 101890 74
2004-03-24 08:10:38 51°16.694 2°53.149 12.5 42 6.4 101890 74
2004-03-24 08:10:44 51°16.704 2°53.114 12.2 45 6.4 101890 74
2004-03-24 08:10:48 51°16.71 2°53.092 13 45 6.4 101900 74
2004-03-24 08:10:54 51°16.72 2°53.058 12.5 44 6.4 101900 74
2004-03-24 08:10:59 51°16.728 2°53.03 12.4 44 6.4 101890 74
2004-03-24 08:11:04 51°16.736 2°53.001 11.6 38 6.4 101890 74
2004-03-24 08:11:09 51°16.744 2°52.973 12.5 39 6.4 101890 74
2004-03-24 08:11:14 51°16.752 2°52.945 12.4 45 6.4 101890 74
2004-03-24 08:11:18 51°16.758 2°52.923 12 44 6.4 101890 74
2004-03-24 08:11:24 51°16.768 2°52.89 12 39 6.4 101890 74
2004-03-24 08:11:29 51°16.776 2°52.862 12.7 41 6.4 101890 75
2004-03-24 08:11:34 51°16.784 2°52.835 12.1 43 6.4 101890 75
2004-03-24 08:11:38 51°16.791 2°52.814 12.1 48 6.4 101900 76
2004-03-24 08:11:44 51°16.8 2°52.782 11.7 44 6.4 101900 76
2004-03-24 08:11:48 51°16.807 2°52.761 11.6 40 6.4 101890 75
2004-03-24 08:11:54 51°16.818 2°52.73 12.2 37 6.4 101890 75
2004-03-24 08:11:58 51°16.825 2°52.709 12 39 6.4 101890 75
2004-03-24 08:12:04 51°16.837 2°52.679 12.4 37 6.4 101890 75
2004-03-24 08:12:08 51°16.845 2°52.659 12.5 36 6.4 101890 75
2004-03-24 08:12:14 51°16.859 2°52.632 12.3 36 6.4 101890 75
2004-03-24 08:12:20 51°16.873 2°52.605 11.6 29 6.4 101900 75
2004-03-24 08:12:24 51°16.884 2°52.589 14.2 27 6.4 101900 75
2004-03-24 08:12:28 51°16.894 2°52.573 13.9 28 6.4 101900 75
2004-03-24 08:12:34 51°16.911 2°52.551 14.2 26 6.4 101900 75
2004-03-24 08:12:38 51°16.923 2°52.536 14.4 25 6.4 101900 75
2004-03-24 08:12:44 51°16.94 2°52.514 13.1 24 6.4 101900 75
2004-03-24 08:12:49 51°16.955 2°52.496 13.5 27 6.4 101910 75
2004-03-24 08:12:54 51°16.969 2°52.479 13.2 24 6.4 101910 75
2004-03-24 08:12:58 51°16.981 2°52.465 13.7 26 6.4 101900 75
2004-03-24 08:13:04 51°16.999 2°52.445 13.4 25 6.4 101900 75
2004-03-24 08:13:09 51°17.014 2°52.43 13.4 24 6.4 101900 74
2004-03-24 08:13:14 51°17.03 2°52.414 13.1 24 6.4 101900 74
2004-03-24 08:13:18 51°17.042 2°52.401 13.3 23 6.4 101900 74
2004-03-24 08:13:24 51°17.06 2°52.381 13.2 28 6.4 101900 74
2004-03-24 08:13:29 51°17.074 2°52.364 13.5 26 6.4 101910 74
2004-03-24 08:13:34 51°17.089 2°52.346 12.8 31 6.4 101910 74
2004-03-24 08:13:38 51°17.101 2°52.331 12.9 24 6.4 101900 74
2004-03-24 08:13:44 51°17.118 2°52.309 13.5 24 6.4 101900 74
2004-03-24 08:13:49 51°17.133 2°52.292 13 27 6.4 101910 74
2004-03-24 08:13:54 51°17.149 2°52.275 12.6 27 6.4 101910 74
2004-03-24 08:13:58 51°17.162 2°52.263 13.6 23 6.4 101900 75
2004-03-24 08:14:04 51°17.181 2°52.245 14 24 6.4 101900 75
2004-03-24 08:14:09 51°17.197 2°52.232 12.7 19 6.4 101900 75
2004-03-24 08:14:14 51°17.214 2°52.218 14.1 26 6.4 101900 75
2004-03-24 08:14:19 51°17.23 2°52.206 13.9 18 6.5 101910 75
2004-03-24 08:14:24 51°17.247 2°52.193 13.1 20 6.5 101910 75
2004-03-24 08:14:29 51°17.264 2°52.181 13.7 21 6.5 101910 75
2004-03-24 08:14:34 51°17.28 2°52.168 13.2 19 6.5 101910 75
2004-03-24 08:14:38 51°17.294 2°52.158 13.3 19 6.5 101910 75
2004-03-24 08:14:44 51°17.314 2°52.142 15 17 6.5 101910 75
2004-03-24 08:14:49 51°17.33 2°52.128 15.3 21 6.5 101910 75
2004-03-24 08:14:54 51°17.347 2°52.115 14.1 22 6.5 101910 75
2004-03-24 08:14:58 51°17.36 2°52.104 14 21 6.5 101920 76
2004-03-24 08:15:04 51°17.379 2°52.086 14.2 21 6.5 101920 76
2004-03-24 08:15:08 51°17.391 2°52.073 15.1 23 6.5 101920 75
2004-03-24 08:15:14 51°17.41 2°52.053 14.8 23 6.5 101920 75
2004-03-24 08:15:19 51°17.425 2°52.036 14.2 22 6.5 101910 75
2004-03-24 08:15:24 51°17.44 2°52.018 14.1 24 6.5 101910 75
2004-03-24 08:15:28 51°17.452 2°52.004 14.1 24 6.5 101920 75
2004-03-24 08:15:34 51°17.47 2°51.982 13.6 27 6.5 101920 75
2004-03-24 08:15:40 51°17.488 2°51.961 14.2 27 6.5 101910 75
2004-03-24 08:15:44 51°17.499 2°51.946 14.3 28 6.5 101910 75
2004-03-24 08:15:48 51°17.511 2°51.93 13.7 27 6.5 101910 74
2004-03-24 08:15:54 51°17.528 2°51.907 13.8 29 6.5 101910 74
2004-03-24 08:15:58 51°17.539 2°51.892 13.5 28 6.5 101900 74
2004-03-24 08:16:04 51°17.556 2°51.868 12.8 26 6.5 101900 74
2004-03-24 08:16:08 51°17.567 2°51.852 14.1 28 6.5 101900 74
2004-03-24 08:16:14 51°17.584 2°51.828 13.5 28 6.5 101900 74
2004-03-24 08:16:18 51°17.596 2°51.813 13.2 28 6.5 101900 74
2004-03-24 08:16:24 51°17.613 2°51.79 12.7 26 6.5 101900 74
2004-03-24 08:16:29 51°17.627 2°51.771 11.6 23 6.5 101900 74
2004-03-24 08:16:34 51°17.641 2°51.752 12.7 24 6.5 101900 74
2004-03-24 08:16:39 51°17.656 2°51.732 12.3 27 6.5 101910 74
2004-03-24 08:16:44 51°17.67 2°51.713 11.9 23 6.5 101910 74
2004-03-24 08:16:48 51°17.681 2°51.697 13.3 30 6.5 101910 75
2004-03-24 08:16:54 51°17.698 2°51.674 14.2 33 6.5 101910 75
2004-03-24 08:16:58 51°17.709 2°51.658 13.5 25 6.5 101920 75
2004-03-24 08:17:04 51°17.726 2°51.634 14 26 6.5 101920 75
2004-03-24 08:17:09 51°17.74 2°51.615 12.7 25 6.5 101910 74
2004-03-24 08:17:14 51°17.754 2°51.595 12.1 30 6.5 101910 74
2004-03-24 08:17:18 51°17.765 2°51.579 13.1 30 6.5 101920 74
2004-03-24 08:17:24 51°17.782 2°51.556 13.3 30 6.5 101920 74
2004-03-24 08:17:28 51°17.793 2°51.54 13 29 6.5 101910 74
2004-03-24 08:17:34 51°17.811 2°51.517 13.6 26 6.5 101910 74
2004-03-24 08:17:38 51°17.822 2°51.501 12.6 27 6.5 101910 74
2004-03-24 08:17:44 51°17.839 2°51.478 13.7 25 6.5 101910 74
2004-03-24 08:17:49 51°17.853 2°51.458 13.4 28 6.5 101900 74
2004-03-24 08:17:54 51°17.868 2°51.438 12.8 30 6.5 101900 74
2004-03-24 08:17:58 51°17.879 2°51.423 13.7 30 6.5 101910 74
2004-03-24 08:18:04 51°17.896 2°51.399 13.6 29 6.5 101910 74
2004-03-24 08:18:09 51°17.909 2°51.379 13.7 28 6.5 101920 74
2004-03-24 08:18:14 51°17.922 2°51.36 13 25 6.5 101920 74
2004-03-24 08:18:18 51°17.933 2°51.344 13.6 26 6.5 101910 75
2004-03-24 08:18:24 51°17.949 2°51.321 13.5 26 6.5 101910 75
2004-03-24 08:18:29 51°17.961 2°51.303 13.6 25 6.5 101920 75
2004-03-24 08:18:34 51°17.974 2°51.285 13.1 28 6.5 101920 75
2004-03-24 08:18:38 51°17.984 2°51.271 13 28 6.5 101910 75
2004-03-24 08:18:44 51°17.998 2°51.251 13.5 28 6.5 101910 75
2004-03-24 08:18:49 51°18.01 2°51.234 12.9 25 6.5 101930 74
2004-03-24 08:18:54 51°18.021 2°51.218 12.6 28 6.5 101930 74
2004-03-24 08:18:59 51°18.033 2°51.203 12.2 25 6.5 101930 74
2004-03-24 08:19:04 51°18.044 2°51.187 11.9 27 6.5 101930 74
2004-03-24 08:19:09 51°18.055 2°51.172 12.6 28 6.5 101920 74
2004-03-24 08:19:14 51°18.066 2°51.157 12 21 6.5 101920 74
2004-03-24 08:19:19 51°18.076 2°51.142 11.8 23 6.5 101920 74
2004-03-24 08:19:24 51°18.087 2°51.127 13.6 23 6.5 101920 74
2004-03-24 08:19:28 51°18.095 2°51.115 13.9 23 6.5 101930 75
2004-03-24 08:19:34 51°18.108 2°51.097 13 22 6.5 101930 75
2004-03-24 08:19:38 51°18.116 2°51.085 12.5 23 6.5 101920 75
2004-03-24 08:19:44 51°18.128 2°51.067 13.2 22 6.5 101920 75
2004-03-24 08:19:49 51°18.138 2°51.051 12.8 18 6.5 101930 75
2004-03-24 08:19:54 51°18.148 2°51.037 12.5 19 6.5 101930 75
2004-03-24 08:19:59 51°18.158 2°51.022 12 20 6.5 101920 75
2004-03-24 08:20:04 51°18.168 2°51.006 13.3 19 6.5 101920 75
2004-03-24 08:20:09 51°18.179 2°50.991 13.3 20 6.5 101930 75
2004-03-24 08:20:14 51°18.19 2°50.976 13.3 18 6.5 101930 75
2004-03-24 08:20:19 51°18.201 2°50.96 13.3 20 6.4 101920 74
2004-03-24 08:20:24 51°18.213 2°50.945 11.9 18 6.4 101920 74
2004-03-24 08:20:28 51°18.223 2°50.933 13.4 11 6.4 101930 74
2004-03-24 08:20:34 51°18.239 2°50.917 13.6 6 6.4 101930 74
2004-03-24 08:20:39 51°18.252 2°50.905 12.6 8 6.4 101930 74
2004-03-24 08:20:44 51°18.267 2°50.894 12.7 7 6.4 101930 74
2004-03-24 08:20:48 51°18.278 2°50.885 13.3 12 6.4 101930 74
2004-03-24 08:20:54 51°18.295 2°50.872 12.9 1 6.4 101930 74
2004-03-24 08:20:58 51°18.307 2°50.865 14.1 5 6.4 101930 74
2004-03-24 08:21:04 51°18.325 2°50.859 12.8 355 6.4 101930 74
2004-03-24 08:21:09 51°18.34 2°50.857 13.8 355 6.4 101930 74
2004-03-24 08:21:14 51°18.354 2°50.858 13.4 356 6.4 101930 74
2004-03-24 08:21:18 51°18.365 2°50.86 12.1 350 6.4 101940 75
2004-03-24 08:21:24 51°18.38 2°50.863 11.9 349 6.4 101940 75
2004-03-24 08:21:29 51°18.391 2°50.867 11.8 348 6.4 101930 75
2004-03-24 08:21:34 51°18.401 2°50.871 11.8 344 6.4 101930 75
2004-03-24 08:21:38 51°18.409 2°50.874 10.8 341 6.4 101930 75
2004-03-24 08:21:44 51°18.419 2°50.88 10 340 6.4 101930 75
2004-03-24 08:21:48 51°18.425 2°50.884 9.9 337 6.4 101930 75
2004-03-24 08:21:54 51°18.434 2°50.892 9.9 337 6.4 101930 75
2004-03-24 08:21:58 51°18.438 2°50.898 9.5 337 6.4 101930 75
2004-03-24 08:22:04 51°18.444 2°50.906 8.6 337 6.4 101930 75
2004-03-24 08:22:09 51°18.448 2°50.912 8.3 328 6.4 101940 76
2004-03-24 08:22:14 51°18.452 2°50.919 9.8 324 6.4 101940 76
2004-03-24 08:22:18 51°18.455 2°50.924 9.6 327 6.4 101940 76
2004-03-24 08:22:24 51°18.459 2°50.932 10.1 324 6.4 101940 76
2004-03-24 08:22:28 51°18.461 2°50.937 9.9 330 6.5 101940 76
2004-03-24 08:22:34 51°18.465 2°50.944 9.7 326 6.5 101940 76
2004-03-24 08:22:38 51°18.467 2°50.949 10.5 323 6.5 101940 76
2004-03-24 08:22:44 51°18.47 2°50.955 9.3 323 6.5 101940 76
2004-03-24 08:22:49 51°18.472 2°50.96 9.8 322 6.4 101940 75
2004-03-24 08:22:54 51°18.475 2°50.965 9.2 324 6.4 101940 75
2004-03-24 08:22:58 51°18.477 2°50.969 9.1 320 6.4 101940 75
2004-03-24 08:23:04 51°18.479 2°50.974 9.9 324 6.4 101940 75
2004-03-24 08:23:09 51°18.481 2°50.978 9.6 321 6.4 101940 75
2004-03-24 08:23:14 51°18.483 2°50.982 9.8 324 6.4 101940 75
2004-03-24 08:23:18 51°18.485 2°50.984 9.4 324 6.4 101940 75
2004-03-24 08:23:24 51°18.487 2°50.989 8.3 319 6.4 101940 75
2004-03-24 08:23:28 51°18.488 2°50.991 9.3 321 6.5 101930 75
2004-03-24 08:23:34 51°18.49 2°50.995 9.3 318 6.5 101930 75
2004-03-24 08:23:38 51°18.491 2°50.997 8.9 319 6.5 101930 75
2004-03-24 08:23:44 51°18.493 2°51.001 9.9 318 6.5 101930 75
2004-03-24 08:23:49 51°18.494 2°51.003 8.9 322 6.4 101940 75
2004-03-24 08:23:54 51°18.495 2°51.005 8.4 320 6.4 101940 75
2004-03-24 08:23:58 51°18.496 2°51.007 9.2 320 6.5 101940 75
2004-03-24 08:24:04 51°18.497 2°51.009 9 319 6.5 101940 75
2004-03-24 08:24:08 51°18.498 2°51.011 8.4 315 6.5 101940 75
2004-03-24 08:24:14 51°18.498 2°51.012 8.9 318 6.5 101940 75
2004-03-24 08:24:18 51°18.498 2°51.013 8.6 318 6.5 101940 75
2004-03-24 08:24:24 51°18.499 2°51.014 8.5 318 6.5 101940 75
2004-03-24 08:24:28 51°18.498 2°51.015 9 317 6.5 101940 75
2004-03-24 08:24:34 51°18.499 2°51.015 8.9 315 6.5 101940 75
2004-03-24 08:24:38 51°18.499 2°51.015 8.2 321 6.5 101930 75
2004-03-24 08:24:44 51°18.499 2°51.016 7.9 228 6.5 101930 75
2004-03-24 08:24:48 51°18.498 2°51.017 8.9 42 6.5 101940 75
2004-03-24 08:24:54 51°18.498 2°51.017 7.5 43 6.5 101940 75
2004-03-24 08:24:58 51°18.498 2°51.018 8.4 42 6.5 101940 75
2004-03-24 08:25:04 51°18.498 2°51.018 7.8 317 6.5 101940 75
2004-03-24 08:25:08 51°18.497 2°51.018 7.3 315 6.5 101950 75
2004-03-24 08:25:14 51°18.497 2°51.019 7.8 321 6.5 101950 75
2004-03-24 08:25:18 51°18.497 2°51.019 8.2 319 6.5 101940 75
2004-03-24 08:25:24 51°18.496 2°51.02 7.8 228 6.5 101940 75
2004-03-24 08:25:29 51°18.496 2°51.019 7.4 43 6.6 101940 75
2004-03-24 08:25:34 51°18.496 2°51.02 7.4 226 6.6 101940 75
2004-03-24 08:25:40 51°18.495 2°51.02 8.3 318 6.6 101950 76
2004-03-24 08:25:44 51°18.495 2°51.02 7.5 317 6.6 101950 76
2004-03-24 08:25:49 51°18.495 2°51.02 7.3 317 6.6 101940 76
2004-03-24 08:25:54 51°18.495 2°51.02 6.9 325 6.6 101940 76
2004-03-24 08:25:59 51°18.494 2°51.02 7.8 320 6.6 101940 76
2004-03-24 08:26:04 51°18.494 2°51.02 7 324 6.6 101940 76
2004-03-24 08:26:09 51°18.494 2°51.02 7.3 322 6.6 101940 76
2004-03-24 08:26:14 51°18.494 2°51.019 7.1 327 6.6 101940 76
2004-03-24 08:26:20 51°18.493 2°51.019 7.2 329 6.6 101940 75
2004-03-24 08:26:24 51°18.493 2°51.019 6.5 330 6.6 101940 75
2004-03-24 08:26:29 51°18.493 2°51.019 6.8 328 6.6 101940 75
2004-03-24 08:26:34 51°18.492 2°51.018 6.7 323 6.6 101940 75
2004-03-24 08:26:38 51°18.492 2°51.018 7.5 316 6.6 101950 75
2004-03-24 08:26:44 51°18.492 2°51.018 8.6 322 6.6 101950 75
2004-03-24 08:26:48 51°18.492 2°51.018 8.1 328 6.6 101940 75
2004-03-24 08:26:54 51°18.491 2°51.017 8.1 324 6.6 101940 75
2004-03-24 08:26:58 51°18.491 2°51.017 6.9 323 6.6 101950 75
2004-03-24 08:27:04 51°18.49 2°51.017 7.9 326 6.6 101950 75
2004-03-24 08:27:09 51°18.49 2°51.017 8.2 326 6.6 101940 75
2004-03-24 08:27:14 51°18.49 2°51.016 7.2 323 6.6 101940 75
2004-03-24 08:27:19 51°18.489 2°51.016 8.5 327 6.6 101950 75
2004-03-24 08:27:24 51°18.489 2°51.015 7.6 322 6.6 101950 75
2004-03-24 08:27:29 51°18.488 2°51.015 8.3 330 6.6 101940 75
2004-03-24 08:27:34 51°18.488 2°51.015 7.9 323 6.6 101940 75
2004-03-24 08:27:39 51°18.488 2°51.015 8.3 320 6.6 101950 74
2004-03-24 08:27:44 51°18.487 2°51.015 8.7 322 6.6 101950 74
2004-03-24 08:27:49 51°18.487 2°51.014 8.2 322 6.6 101950 74
2004-03-24 08:27:54 51°18.486 2°51.014 7.6 321 6.6 101950 74
2004-03-24 08:28:00 51°18.486 2°51.014 7.3 325 6.6 101950 74
2004-03-24 08:28:04 51°18.485 2°51.013 7.8 323 6.6 101950 74
2004-03-24 08:28:09 51°18.485 2°51.013 8 323 6.6 101940 74
2004-03-24 08:28:14 51°18.484 2°51.013 7.7 319 6.6 101940 74
2004-03-24 08:28:18 51°18.484 2°51.013 7.5 321 6.6 101940 74
2004-03-24 08:28:24 51°18.483 2°51.012 7.1 319 6.6 101940 74
2004-03-24 08:28:29 51°18.482 2°51.012 7.8 323 6.6 101950 74
2004-03-24 08:28:34 51°18.482 2°51.011 7.8 323 6.6 101950 74
2004-03-24 08:28:39 51°18.481 2°51.011 7.8 323 6.6 101940 74
2004-03-24 08:28:44 51°18.481 2°51.011 7.9 324 6.6 101940 74
2004-03-24 08:28:48 51°18.481 2°51.01 7.6 323 6.6 101940 74
2004-03-24 08:28:54 51°18.48 2°51.01 8.2 319 6.6 101940 74
2004-03-24 08:28:58 51°18.48 2°51.01 7.8 324 6.6 101950 74
2004-03-24 08:29:04 51°18.479 2°51.009 7.5 318 6.6 101950 74
2004-03-24 08:29:09 51°18.478 2°51.009 7.5 321 6.6 101950 74
2004-03-24 08:29:14 51°18.478 2°51.009 7.5 320 6.6 101950 74
2004-03-24 08:29:18 51°18.477 2°51.009 8.2 320 6.6 101950 74
2004-03-24 08:29:24 51°18.477 2°51.009 7.4 322 6.6 101950 74
2004-03-24 08:29:28 51°18.476 2°51.008 7.3 318 6.6 101950 74
2004-03-24 08:29:34 51°18.475 2°51.008 7.7 318 6.6 101950 74
2004-03-24 08:29:39 51°18.475 2°51.008 7.6 316 6.6 101950 74
2004-03-24 08:29:44 51°18.474 2°51.008 8.1 323 6.6 101950 74
2004-03-24 08:29:49 51°18.474 2°51.007 7.2 325 6.6 101950 74
2004-03-24 08:29:54 51°18.473 2°51.007 7.4 319 6.6 101950 74
2004-03-24 08:29:58 51°18.473 2°51.007 7.4 323 6.6 101960 73
2004-03-24 08:30:04 51°18.472 2°51.006 7.6 323 6.6 101960 73
2004-03-24 08:30:08 51°18.471 2°51.006 7.9 317 6.6 101950 73
2004-03-24 08:30:14 51°18.471 2°51.006 7.5 320 6.6 101950 73
2004-03-24 08:30:18 51°18.47 2°51.006 6.9 321 6.6 101950 73
2004-03-24 08:30:24 51°18.47 2°51.006 7.2 317 6.6 101950 73
2004-03-24 08:30:29 51°18.469 2°51.005 6.5 324 6.6 101950 73
2004-03-24 08:30:34 51°18.468 2°51.005 7.2 43 6.6 101950 73
2004-03-24 08:30:38 51°18.468 2°51.004 6.9 318 6.6 101960 73
2004-03-24 08:30:44 51°18.467 2°51.004 7.3 316 6.6 101960 73
2004-03-24 08:30:48 51°18.467 2°51.004 7.4 318 6.5 101960 73
2004-03-24 08:30:54 51°18.466 2°51.003 7.2 318 6.5 101960 73
2004-03-24 08:30:59 51°18.465 2°51.003 7.6 317 6.5 101960 73
2004-03-24 08:31:04 51°18.465 2°51.003 7.5 316 6.5 101960 73
2004-03-24 08:31:08 51°18.464 2°51.003 8.2 316 6.5 101950 73
2004-03-24 08:31:14 51°18.463 2°51.003 6.6 320 6.5 101950 73
2004-03-24 08:31:19 51°18.462 2°51.003 7 315 6.5 101950 73
2004-03-24 08:31:24 51°18.462 2°51.002 7 317 6.5 101950 73
2004-03-24 08:31:28 51°18.461 2°51.002 6.9 322 6.6 101950 73
2004-03-24 08:31:34 51°18.461 2°51.001 7 325 6.6 101950 73
2004-03-24 08:31:39 51°18.46 2°51.001 7 332 6.5 101950 73
2004-03-24 08:31:44 51°18.459 2°51 6.7 329 6.5 101950 73
2004-03-24 08:31:49 51°18.459 2°51 6.6 330 6.6 101960 74
2004-03-24 08:31:54 51°18.458 2°50.999 6.6 333 6.6 101960 74
2004-03-24 08:31:58 51°18.458 2°50.999 7.2 330 6.6 101960 74
2004-03-24 08:32:04 51°18.457 2°50.998 6.4 327 6.6 101960 74
2004-03-24 08:32:09 51°18.456 2°50.997 6.5 332 6.6 101950 74
2004-03-24 08:32:14 51°18.455 2°50.997 5.9 330 6.6 101950 74
2004-03-24 08:32:18 51°18.455 2°50.996 6.1 333 6.6 101960 74
2004-03-24 08:32:24 51°18.454 2°50.996 7.2 325 6.6 101960 74
2004-03-24 08:32:28 51°18.453 2°50.994 6.9 334 6.6 101950 74
2004-03-24 08:32:34 51°18.453 2°50.994 7.4 333 6.6 101950 74
2004-03-24 08:32:39 51°18.452 2°50.993 7.2 331 6.6 101960 74
2004-03-24 08:32:44 51°18.451 2°50.992 6.9 333 6.6 101960 74
2004-03-24 08:32:49 51°18.451 2°50.991 6.8 338 6.7 101950 74
2004-03-24 08:32:54 51°18.45 2°50.991 7.1 335 6.7 101950 74
2004-03-24 08:32:58 51°18.449 2°50.99 6.4 339 6.7 101960 74
2004-03-24 08:33:04 51°18.449 2°50.988 6.6 341 6.7 101960 74
2004-03-24 08:33:08 51°18.448 2°50.988 6.3 344 6.7 101960 74
2004-03-24 08:33:14 51°18.447 2°50.987 6.7 346 6.7 101960 74
2004-03-24 08:33:18 51°18.447 2°50.986 6.6 340 6.7 101960 74
2004-03-24 08:33:24 51°18.446 2°50.985 7.3 345 6.7 101960 74
2004-03-24 08:33:29 51°18.445 2°50.984 6.9 344 6.7 101960 74
2004-03-24 08:33:34 51°18.445 2°50.983 8.1 347 6.7 101960 74
2004-03-24 08:33:39 51°18.444 2°50.982 6.9 346 6.7 101960 74
2004-03-24 08:33:44 51°18.443 2°50.981 7 349 6.7 101960 74
2004-03-24 08:33:50 51°18.442 2°50.979 7.4 349 6.7 101960 74
2004-03-24 08:33:54 51°18.442 2°50.979 7.5 346 6.7 101960 74
2004-03-24 08:33:58 51°18.441 2°50.977 7.5 347 6.7 101960 73
2004-03-24 08:34:04 51°18.44 2°50.976 7 349 6.7 101960 73
2004-03-24 08:34:08 51°18.439 2°50.975 6.9 353 6.7 101960 73
2004-03-24 08:34:14 51°18.438 2°50.974 6.9 350 6.7 101960 73
2004-03-24 08:34:18 51°18.438 2°50.973 6.8 351 6.7 101960 72
2004-03-24 08:34:24 51°18.437 2°50.971 7.9 351 6.7 101960 72
2004-03-24 08:34:29 51°18.436 2°50.97 6.6 354 6.6 101960 72
2004-03-24 08:34:34 51°18.435 2°50.968 7 357 6.6 101960 72
2004-03-24 08:34:39 51°18.434 2°50.967 6.3 355 6.6 101960 72
2004-03-24 08:34:44 51°18.433 2°50.966 6.3 357 6.6 101960 72
2004-03-24 08:34:49 51°18.433 2°50.964 6.2 355 6.6 101960 72
2004-03-24 08:34:54 51°18.432 2°50.963 7 358 6.6 101960 72
2004-03-24 08:34:58 51°18.431 2°50.961 6.9 357 6.6 101960 71
2004-03-24 08:35:04 51°18.43 2°50.959 6.6 353 6.6 101960 71
2004-03-24 08:35:09 51°18.429 2°50.958 6.1 352 6.6 101960 71
2004-03-24 08:35:14 51°18.429 2°50.957 6 1 6.6 101960 71
2004-03-24 08:35:18 51°18.428 2°50.955 6.1 9 6.6 101960 71
2004-03-24 08:35:24 51°18.427 2°50.953 6.2 356 6.6 101960 71
2004-03-24 08:35:29 51°18.426 2°50.952 6.2 355 6.6 101960 71
2004-03-24 08:35:34 51°18.426 2°50.95 7.1   6.6 101960 71
2004-03-24 08:35:38 51°18.426 2°50.948 8.6 2 6.6 101960 72
2004-03-24 08:35:44 51°18.427 2°50.946 8.7 9 6.6 101960 72
2004-03-24 08:35:49 51°18.43 2°50.943 9.5 15 6.6 101960 72
2004-03-24 08:35:54 51°18.434 2°50.94 11 16 6.6 101960 72
2004-03-24 08:36:00 51°18.44 2°50.936 10.6 11 6.6 101960 72
2004-03-24 08:36:04 51°18.445 2°50.933 10.6 4 6.6 101960 72
2004-03-24 08:36:08 51°18.45 2°50.931 10.4 3 6.6 101950 72
2004-03-24 08:36:14 51°18.46 2°50.931 11.1 356 6.6 101950 72
2004-03-24 08:36:18 51°18.467 2°50.933 11 352 6.6 101950 72
2004-03-24 08:36:24 51°18.477 2°50.938 11.5 346 6.6 101950 72
2004-03-24 08:36:28 51°18.484 2°50.944 10.9 341 6.6 101940 72
2004-03-24 08:36:34 51°18.494 2°50.957 10.9 334 6.6 101940 72
2004-03-24 08:36:38 51°18.5 2°50.967 9.7 331 6.6 101940 71
2004-03-24 08:36:44 51°18.509 2°50.984 11.9 331 6.6 101940 71
2004-03-24 08:36:49 51°18.517 2°50.999 10.2 333 6.5 101940 72
2004-03-24 08:36:54 51°18.525 2°51.015 12.6 334 6.5 101940 72
2004-03-24 08:36:58 51°18.531 2°51.028 12.4 333 6.6 101930 72
2004-03-24 08:37:04 51°18.541 2°51.05 14 336 6.6 101930 72
2004-03-24 08:37:09 51°18.549 2°51.068 13.4 334 6.6 101930 72
2004-03-24 08:37:14 51°18.556 2°51.087 13.2 332 6.6 101930 72
2004-03-24 08:37:18 51°18.562 2°51.103 12.9 332 6.6 101930 73
2004-03-24 08:37:24 51°18.571 2°51.127 12.1 331 6.6 101930 73
2004-03-24 08:37:28 51°18.576 2°51.145 12.5 328 6.6 101930 73
2004-03-24 08:37:34 51°18.585 2°51.171 12.3 332 6.6 101930 73
2004-03-24 08:37:40 51°18.593 2°51.199 12.2 330 6.6 101920 72
2004-03-24 08:37:44 51°18.599 2°51.218 12 333 6.6 101920 72
2004-03-24 08:37:49 51°18.606 2°51.242 14.8 330 6.6 101920 72
2004-03-24 08:37:54 51°18.612 2°51.267 13.2 327 6.6 101920 72
2004-03-24 08:37:58 51°18.618 2°51.287 14.1 333 6.6 101910 72
2004-03-24 08:38:04 51°18.626 2°51.318 13.4 329 6.6 101910 72
2004-03-24 08:38:09 51°18.632 2°51.343 13.8 331 6.6 101910 72
2004-03-24 08:38:14 51°18.639 2°51.368 13.9 331 6.6 101910 72
2004-03-24 08:38:20 51°18.647 2°51.399 14.2 328 6.6 101910 72
2004-03-24 08:38:24 51°18.652 2°51.42 12.8 330 6.6 101910 72
2004-03-24 08:38:29 51°18.659 2°51.445 12.9 329 6.6 101910 72
2004-03-24 08:38:34 51°18.666 2°51.47 14.2 330 6.6 101910 72
2004-03-24 08:38:38 51°18.671 2°51.491 12.5 330 6.6 101910 72
2004-03-24 08:38:44 51°18.68 2°51.521 12.9 331 6.6 101910 72
2004-03-24 08:38:49 51°18.686 2°51.547 14.4 327 6.6 101920 72
2004-03-24 08:38:54 51°18.693 2°51.573 11.6 334 6.6 101920 72
2004-03-24 08:38:59 51°18.7 2°51.598 11.8 339 6.6 101910 72
2004-03-24 08:39:04 51°18.707 2°51.624 12 336 6.6 101910 72
2004-03-24 08:39:09 51°18.714 2°51.649 13.4 326 6.6 101920 72
2004-03-24 08:39:14 51°18.721 2°51.675 13.1 335 6.6 101920 72
2004-03-24 08:39:18 51°18.726 2°51.695 12.9 330 6.6 101910 72
2004-03-24 08:39:24 51°18.734 2°51.726 13 334 6.6 101910 72
2004-03-24 08:39:29 51°18.741 2°51.752 13.5 335 6.6 101920 73
2004-03-24 08:39:34 51°18.747 2°51.777 13.1 334 6.6 101920 73
2004-03-24 08:39:39 51°18.755 2°51.803 13.4 334 6.6 101910 73
2004-03-24 08:39:44 51°18.762 2°51.828 14.2 334 6.6 101910 73
2004-03-24 08:39:49 51°18.769 2°51.853 13.8 331 6.6 101910 73
2004-03-24 08:39:54 51°18.776 2°51.879 12.4 338 6.6 101910 73
2004-03-24 08:39:58 51°18.782 2°51.899 13.6 334 6.7 101920 73
2004-03-24 08:40:04 51°18.79 2°51.93 13.5 333 6.7 101920 73
2004-03-24 08:40:09 51°18.797 2°51.955 13.9 330 6.7 101920 73
2004-03-24 08:40:14 51°18.804 2°51.981 13.3 328 6.7 101920 73
2004-03-24 08:40:18 51°18.809 2°52.001 12.9 331 6.6 101920 73
2004-03-24 08:40:24 51°18.818 2°52.031 12.7 331 6.6 101920 73
2004-03-24 08:40:28 51°18.823 2°52.052 12.9 331 6.6 101920 73
2004-03-24 08:40:34 51°18.832 2°52.083 12.9 336 6.6 101920 73
2004-03-24 08:40:38 51°18.837 2°52.103 13 335 6.6 101930 73
2004-03-24 08:40:44 51°18.846 2°52.133 11.9 338 6.6 101930 73
2004-03-24 08:40:49 51°18.853 2°52.159 13.3 328 6.6 101920 73
2004-03-24 08:40:54 51°18.86 2°52.185 12 335 6.6 101920 73
2004-03-24 08:40:58 51°18.866 2°52.205 12.5 336 6.6 101920 73
2004-03-24 08:41:04 51°18.874 2°52.236 13.5 334 6.6 101920 73
2004-03-24 08:41:09 51°18.882 2°52.261 13.3 331 6.6 101920 74
2004-03-24 08:41:14 51°18.888 2°52.287 11.5 336 6.6 101920 74
2004-03-24 08:41:20 51°18.897 2°52.317 11.9 340 6.6 101920 73
2004-03-24 08:41:24 51°18.903 2°52.338 12.9 337 6.6 101920 73
2004-03-24 08:41:29 51°18.909 2°52.363 13.7 338 6.6 101920 74
2004-03-24 08:41:34 51°18.916 2°52.389 12.1 336 6.6 101920 74
2004-03-24 08:41:40 51°18.925 2°52.419 13.1 336 6.6 101920 74
2004-03-24 08:41:44 51°18.93 2°52.44 13.8 336 6.6 101920 74
2004-03-24 08:41:49 51°18.937 2°52.465 13.6 336 6.7 101930 74
2004-03-24 08:41:54 51°18.943 2°52.491 13.6 333 6.7 101930 74
2004-03-24 08:42:00 51°18.951 2°52.522 13.6 333 6.7 101920 74
2004-03-24 08:42:04 51°18.956 2°52.543 12.9 331 6.7 101920 74
2004-03-24 08:42:09 51°18.962 2°52.569 13 334 6.7 101930 74
2004-03-24 08:42:14 51°18.968 2°52.596 14.1 338 6.7 101930 74
2004-03-24 08:42:19 51°18.974 2°52.621 14.2 338 6.7 101920 74
2004-03-24 08:42:24 51°18.98 2°52.648 14.6 335 6.7 101920 74
2004-03-24 08:42:29 51°18.986 2°52.674 15 336 6.6 101920 74
2004-03-24 08:42:34 51°18.992 2°52.7 14.5 336 6.6 101920 74
2004-03-24 08:42:38 51°18.997 2°52.72 14.3 335 6.6 101920 74
2004-03-24 08:42:44 51°19.004 2°52.752 14.8 334 6.6 101920 74
2004-03-24 08:42:49 51°19.01 2°52.778 14.4 337 6.7 101920 74
2004-03-24 08:42:54 51°19.016 2°52.804 14.3 333 6.7 101920 74
2004-03-24 08:42:58 51°19.021 2°52.824 14.4 332 6.6 101920 74
2004-03-24 08:43:04 51°19.028 2°52.856 13.8 335 6.6 101920 74
2004-03-24 08:43:08 51°19.033 2°52.876 13.3 335 6.6 101920 73
2004-03-24 08:43:14 51°19.04 2°52.908 13.5 330 6.6 101920 73
2004-03-24 08:43:18 51°19.045 2°52.928 14.7 336 6.6 101920 73
2004-03-24 08:43:24 51°19.052 2°52.959 13.6 336 6.6 101920 73
2004-03-24 08:43:29 51°19.058 2°52.985 13.5 336 6.6 101930 73
2004-03-24 08:43:34 51°19.064 2°53.01 13.7 337 6.6 101930 73
2004-03-24 08:43:39 51°19.07 2°53.036 13.7 335 6.6 101930 74
2004-03-24 08:43:44 51°19.076 2°53.062 14.2 335 6.6 101930 74
2004-03-24 08:43:49 51°19.082 2°53.088 14 335 6.6 101920 73
2004-03-24 08:43:54 51°19.088 2°53.114 14.9 333 6.6 101920 73
2004-03-24 08:43:58 51°19.093 2°53.135 14.2 331 6.6 101920 73
2004-03-24 08:44:04 51°19.1 2°53.166 13.7 333 6.6 101920 73
2004-03-24 08:44:09 51°19.106 2°53.192 14.2 329 6.6 101920 73
2004-03-24 08:44:14 51°19.112 2°53.218 12.4 332 6.6 101920 73
2004-03-24 08:44:18 51°19.117 2°53.239 12.1 335 6.6 101920 73
2004-03-24 08:44:24 51°19.124 2°53.27 13.3 335 6.6 101920 73
2004-03-24 08:44:29 51°19.13 2°53.296 12.4 336 6.6 101920 73
2004-03-24 08:44:34 51°19.136 2°53.322 13 330 6.6 101920 73
2004-03-24 08:44:38 51°19.141 2°53.342 13.3 337 6.6 101930 74
2004-03-24 08:44:44 51°19.148 2°53.373 13.6 333 6.6 101930 74
2004-03-24 08:44:49 51°19.154 2°53.399 13.2 334 6.6 101930 74
2004-03-24 08:44:54 51°19.16 2°53.425 13.3 335 6.6 101930 74
2004-03-24 08:44:58 51°19.165 2°53.446 14.3 334 6.6 101920 74
2004-03-24 08:45:04 51°19.173 2°53.476 12.2 338 6.6 101920 74
2004-03-24 08:45:08 51°19.177 2°53.497 12.9 340 6.6 101930 74
2004-03-24 08:45:14 51°19.185 2°53.528 13.4 328 6.6 101930 74
2004-03-24 08:45:19 51°19.191 2°53.554 14.1 335 6.6 101920 74
2004-03-24 08:45:24 51°19.197 2°53.58 13.5 335 6.6 101920 74
2004-03-24 08:45:29 51°19.203 2°53.605 14.5 332 6.6 101920 74
2004-03-24 08:45:34 51°19.209 2°53.631 14.6 330 6.6 101920 74
2004-03-24 08:45:38 51°19.214 2°53.652 13.2 332 6.6 101920 74
2004-03-24 08:45:44 51°19.221 2°53.682 14.8 333 6.6 101920 74
2004-03-24 08:45:49 51°19.228 2°53.708 14.3 330 6.6 101910 74
2004-03-24 08:45:54 51°19.234 2°53.734 14.7 331 6.6 101910 74
2004-03-24 08:45:59 51°19.239 2°53.76 13.8 330 6.6 101920 74
2004-03-24 08:46:04 51°19.246 2°53.785 14.3 328 6.6 101920 74
2004-03-24 08:46:09 51°19.252 2°53.811 13.4 334 6.5 101920 74
2004-03-24 08:46:14 51°19.258 2°53.836 14.3 331 6.5 101920 74
2004-03-24 08:46:18 51°19.263 2°53.856 13.4 332 6.5 101910 74
2004-03-24 08:46:24 51°19.27 2°53.887 14.2 328 6.5 101910 74
2004-03-24 08:46:29 51°19.276 2°53.913 14.3 325 6.5 101910 74
2004-03-24 08:46:34 51°19.282 2°53.939 13.6 333 6.5 101910 74
2004-03-24 08:46:38 51°19.287 2°53.959 14.3 334 6.5 101920 74
2004-03-24 08:46:44 51°19.294 2°53.99 13.8 332 6.5 101920 74
2004-03-24 08:46:48 51°19.299 2°54.011 13.2 332 6.5 101910 74
2004-03-24 08:46:54 51°19.306 2°54.042 14.6 330 6.5 101910 74
2004-03-24 08:46:58 51°19.311 2°54.062 13.9 334 6.5 101920 74
2004-03-24 08:47:04 51°19.318 2°54.093 13.9 330 6.5 101920 74
2004-03-24 08:47:08 51°19.322 2°54.113 13.7 331 6.5 101930 73
2004-03-24 08:47:14 51°19.329 2°54.144 12.4 330 6.5 101930 73
2004-03-24 08:47:18 51°19.334 2°54.164 12.6 333 6.5 101920 73
2004-03-24 08:47:24 51°19.341 2°54.195 13.1 329 6.5 101920 73
2004-03-24 08:47:28 51°19.346 2°54.215 12.4 334 6.5 101910 73
2004-03-24 08:47:34 51°19.353 2°54.245 12.8 333 6.5 101910 73
2004-03-24 08:47:39 51°19.359 2°54.271 13 325 6.5 101910 73
2004-03-24 08:47:44 51°19.365 2°54.296 12.6 328 6.5 101910 73
2004-03-24 08:47:48 51°19.37 2°54.317 13.1 331 6.5 101910 73
2004-03-24 08:47:54 51°19.377 2°54.347 12.9 329 6.5 101910 73
2004-03-24 08:47:58 51°19.382 2°54.367 13.5 325 6.5 101910 73
2004-03-24 08:48:04 51°19.389 2°54.397 13.5 328 6.5 101910 73
2004-03-24 08:48:08 51°19.393 2°54.418 12.4 327 6.5 101920 74
2004-03-24 08:48:14 51°19.4 2°54.448 12.9 325 6.5 101920 74
2004-03-24 08:48:18 51°19.405 2°54.468 13.6 332 6.5 101910 74
2004-03-24 08:48:24 51°19.412 2°54.499 13.3 331 6.5 101910 74
2004-03-24 08:48:29 51°19.418 2°54.524 13.8 328 6.5 101900 73
2004-03-24 08:48:34 51°19.424 2°54.549 14.2 327 6.5 101900 73
2004-03-24 08:48:39 51°19.43 2°54.575 13.2 325 6.5 101910 73
2004-03-24 08:48:44 51°19.436 2°54.6 13.5 325 6.5 101910 73
2004-03-24 08:48:49 51°19.442 2°54.625 12.3 330 6.5 101920 74
2004-03-24 08:48:54 51°19.447 2°54.651 13.6 331 6.5 101920 74
2004-03-24 08:48:59 51°19.453 2°54.676 13.1 328 6.5 101910 73
2004-03-24 08:49:04 51°19.46 2°54.701 12.9 327 6.5 101910 73
2004-03-24 08:49:09 51°19.466 2°54.726 14.1 328 6.5 101910 73
2004-03-24 08:49:14 51°19.471 2°54.752 14.2 325 6.5 101910 73
2004-03-24 08:49:19 51°19.477 2°54.777 13.4 325 6.5 101910 73
2004-03-24 08:49:24 51°19.483 2°54.803 12.3 328 6.5 101910 73
2004-03-24 08:49:29 51°19.488 2°54.828 12.3 327 6.5 101910 73
2004-03-24 08:49:34 51°19.494 2°54.854 11.2 331 6.5 101910 73
2004-03-24 08:49:39 51°19.499 2°54.88 12.6 332 6.5 101910 73
2004-03-24 08:49:44 51°19.505 2°54.905 12.6 334 6.5 101910 73
2004-03-24 08:49:49 51°19.51 2°54.931 13.2 333 6.5 101910 73
2004-03-24 08:49:54 51°19.517 2°54.957 13.5 332 6.5 101910 73
2004-03-24 08:49:59 51°19.522 2°54.982 13.4 329 6.5 101920 74
2004-03-24 08:50:04 51°19.528 2°55.007 13.5 329 6.5 101920 74
2004-03-24 08:50:09 51°19.535 2°55.032 13.7 330 6.5 101920 74
2004-03-24 08:50:14 51°19.54 2°55.058 13.4 326 6.5 101920 74
2004-03-24 08:50:18 51°19.545 2°55.078 11.4 336 6.5 101920 74
2004-03-24 08:50:24 51°19.553 2°55.108 12.8 329 6.5 101920 74
2004-03-24 08:50:29 51°19.558 2°55.134 13.4 331 6.5 101910 74
2004-03-24 08:50:34 51°19.565 2°55.158 13.4 337 6.5 101910 74
2004-03-24 08:50:38 51°19.569 2°55.179 13.1 338 6.5 101920 74
2004-03-24 08:50:44 51°19.577 2°55.209 13.5 336 6.5 101920 74
2004-03-24 08:50:49 51°19.583 2°55.234 14.1 332 6.6 101910 74
2004-03-24 08:50:54 51°19.588 2°55.259 13.3 334 6.6 101910 74
2004-03-24 08:50:58 51°19.593 2°55.279 12.3 334 6.6 101910 74
2004-03-24 08:51:04 51°19.6 2°55.309 13.7 332 6.6 101910 74
2004-03-24 08:51:09 51°19.606 2°55.335 12.4 337 6.6 101920 74
2004-03-24 08:51:14 51°19.612 2°55.36 12 334 6.6 101920 74
2004-03-24 08:51:19 51°19.617 2°55.385 12.3 332 6.6 101920 74
2004-03-24 08:51:24 51°19.624 2°55.41 13.9 334 6.6 101920 74
2004-03-24 08:51:29 51°19.629 2°55.435 13.1 330 6.6 101920 74
2004-03-24 08:51:34 51°19.635 2°55.461 14 330 6.6 101920 74
2004-03-24 08:51:39 51°19.641 2°55.486 13.7 330 6.6 101920 74
2004-03-24 08:51:44 51°19.646 2°55.511 12.8 335 6.6 101920 74
2004-03-24 08:51:48 51°19.651 2°55.532 13.6 332 6.6 101920 74
2004-03-24 08:51:54 51°19.658 2°55.562 13.8 335 6.6 101920 74
2004-03-24 08:51:59 51°19.664 2°55.587 12.4 336 6.6 101920 74
2004-03-24 08:52:04 51°19.67 2°55.612 14.1 340 6.6 101920 74
2004-03-24 08:52:08 51°19.674 2°55.632 14.1 338 6.6 101910 74
2004-03-24 08:52:14 51°19.682 2°55.662 14.2 334 6.6 101910 74
2004-03-24 08:52:19 51°19.688 2°55.686 14.2 335 6.6 101910 74
2004-03-24 08:52:24 51°19.694 2°55.712 13.4 335 6.6 101910 74
2004-03-24 08:52:28 51°19.699 2°55.732 15.5 334 6.6 101920 74
2004-03-24 08:52:34 51°19.706 2°55.762 13.5 336 6.6 101920 74
2004-03-24 08:52:38 51°19.71 2°55.782 13.7 332 6.6 101920 74
2004-03-24 08:52:44 51°19.716 2°55.813 13.4 333 6.6 101920 74
2004-03-24 08:52:49 51°19.721 2°55.838 13.5 332 6.6 101910 73
2004-03-24 08:52:54 51°19.726 2°55.864 12.9 326 6.6 101910 73
2004-03-24 08:52:59 51°19.732 2°55.89 13.1 331 6.5 101910 73
2004-03-24 08:53:04 51°19.736 2°55.916 13.8 331 6.5 101910 73
2004-03-24 08:53:09 51°19.742 2°55.941 13.7 332 6.5 101910 72
2004-03-24 08:53:14 51°19.747 2°55.966 14 325 6.5 101910 72
2004-03-24 08:53:18 51°19.751 2°55.987 14.4 330 6.5 101910 72
2004-03-24 08:53:24 51°19.758 2°56.017 14.4 326 6.5 101910 72
2004-03-24 08:53:29 51°19.763 2°56.043 14.8 327 6.5 101910 72
2004-03-24 08:53:34 51°19.767 2°56.069 13.7 327 6.5 101910 72
2004-03-24 08:53:38 51°19.772 2°56.089 12.7 332 6.5 101910 72
2004-03-24 08:53:44 51°19.777 2°56.12 12.6 330 6.5 101910 72
2004-03-24 08:53:48 51°19.782 2°56.14 12.9 329 6.5 101910 72
2004-03-24 08:53:54 51°19.787 2°56.171 14.3 326 6.5 101910 72
2004-03-24 08:54:00 51°19.794 2°56.202 13.7 328 6.5 101910 72
2004-03-24 08:54:04 51°19.798 2°56.222 13.8 330 6.5 101910 72
2004-03-24 08:54:08 51°19.802 2°56.243 12.6 329 6.5 101920 71
2004-03-24 08:54:14 51°19.808 2°56.273 12.4 329 6.5 101920 71
2004-03-24 08:54:18 51°19.813 2°56.293 13.8 326 6.5 101920 71
2004-03-24 08:54:24 51°19.818 2°56.325 13 328 6.5 101920 71
2004-03-24 08:54:29 51°19.824 2°56.35 12.6 331 6.5 101910 71
2004-03-24 08:54:34 51°19.829 2°56.375 12.7 328 6.5 101910 71
2004-03-24 08:54:40 51°19.835 2°56.406 12.7 332 6.5 101920 71